Nearby METAR Reports

 

KBFI - Seattle/Boeing, Washington, USA
Distance from station: S 10mi, 16km
Updated: Sep/16/2021 7:53am
Clear
Clear
 Wind from calm
Wind: Calm
Temperature: 48°F , 9°C
Dew Point: 46°F , 8°C
Humidity: 94%
Barometer: 30.17 inHg , 1021.7 hPa
Clouds: Clear
Visibility: 10 miles , 16 km
2021/09/16 14:53 KBFI 161453Z 00000KT 10SM CLR 09/08 A3017 RMK AO2 SLP215 T00940083 53001
KRNT - Renton, Washington, USA
Distance from station: SSE 14mi, 23km
Updated: Sep/16/2021 7:53am
Clear
Clear
 Wind from calm
Wind: Calm
Temperature: 48°F , 9°C
Dew Point: 43°F , 6°C
Humidity: 82%
Barometer: 30.17 inHg , 1021.7 hPa
Clouds: Clear
Visibility: 9 miles , 14 km
2021/09/16 14:53 KRNT 161453Z 00000KT 9SM CLR 09/06 A3017 RMK AO2 SLP221 T00890056 53001
 
KPAE - Everett, Washington, USA
Distance from station: N 15mi, 25km
Updated: Sep/16/2021 7:53am
Clear
Clear
 Wind from calm
Wind: Calm
Temperature: 48°F , 9°C
Dew Point: 45°F , 7°C
Humidity: 87%
Barometer: 30.17 inHg , 1021.7 hPa
Clouds: Clear
Visibility: 10 miles , 16 km
2021/09/16 14:53 KPAE 161453Z 00000KT 10SM CLR 09/07 A3017 RMK AO2 SLP218 T00940072 53002
KSEA - Seattle/Metro, Washington, USA
Distance from station: S 17mi, 27km
Updated: Sep/16/2021 7:53am
Few Clouds
Few Clouds
 Wind from calm
Wind: Calm
Temperature: 48°F , 9°C
Dew Point: 45°F , 7°C
Humidity: 87%
Barometer: 30.16 inHg , 1021.3 hPa
Clouds: Few Clouds
Visibility: 10 miles , 16 km
Cloud details: Few Clouds 25000 ft
2021/09/16 14:53 KSEA 161453Z 00000KT 10SM FEW250 09/07 A3016 RMK AO2 SLP220 T00940067 53000
 
KPWT - Bremerton Ntnl, Washington, USA
Distance from station: SW 24mi, 39km
Updated: Sep/16/2021 7:56am
Clear
Clear
 Wind from calm
Wind: Calm
Temperature: 43°F , 6°C
Dew Point: 43°F , 6°C
Humidity: 100%
Barometer: 30.17 inHg , 1021.7 hPa
Clouds: Clear
Visibility: 10 miles , 16 km
2021/09/16 14:56 KPWT 161456Z AUTO 00000KT 10SM CLR 06/06 A3017 RMK AO2 SLP223 T00610056 50001
KTIW - Tacoma, Washington, USA
Distance from station: SSW 32mi, 52km
Updated: Sep/16/2021 7:53am
Clear
Clear
 Wind from calm
Wind: Calm
Temperature: 46°F , 8°C
Dew Point: 46°F , 8°C
Humidity: 100%
Barometer: 30.17 inHg , 1021.7 hPa
Clouds: Clear
Visibility: 10 miles , 16 km
2021/09/16 14:53 KTIW 161453Z 00000KT 10SM CLR 08/08 A3017 RMK AO2 SLP218 T00780078 53001
 
KAWO - Arlington Muni, Washington, USA
Distance from station: N 33mi, 54km
Updated: Sep/16/2021 7:56am
Clear
Clear
 Wind from calm
Wind: Calm
Temperature: 43°F , 6°C
Dew Point: 41°F , 5°C
Humidity: 93%
Barometer: 30.19 inHg , 1022.4 hPa
Clouds: Clear
Visibility: 10 miles , 16 km
2021/09/16 14:56 KAWO 161456Z AUTO 00000KT 10SM CLR 06/05 A3019 RMK AO2 SLP227 T00560050 53003
KTCM - Tacoma/Mc Chord, Washington, USA
Distance from station: S 41mi, 65km
Updated: Sep/16/2021 7:58am
Clear
Clear
 Wind from calm
Wind: Calm
Temperature: 41°F , 5°C
Dew Point: 39°F , 4°C
Humidity: 93%
Barometer: 30.16 inHg , 1021.3 hPa
Clouds: Clear
Visibility: 10 miles , 16 km
2021/09/16 14:58 KTCM 161458Z AUTO 00000KT 10SM CLR 05/04 A3016 RMK AO2 SLP218 T00520039 58001 $
 
KPLU - Puyallup/Thun, Washington, USA
Distance from station: S 41mi, 66km
Updated: Sep/16/2021 8:35am
Clear
Clear
 Wind from calm
Wind: Calm
Temperature: 50°F , 10°C
Dew Point: 43°F , 6°C
Humidity: 76%
Barometer: 30.16 inHg , 1021.3 hPa
Clouds: Clear
Visibility: 10 miles , 16 km
2021/09/16 15:35 KPLU 161535Z AUTO 00000KT 10SM CLR 10/06 A3016 RMK AO2
KGRF - Fort Lewis/Gray, Washington, USA
Distance from station: SSW 45mi, 72km
Updated: Sep/16/2021 7:58am
Clear
Clear
 Wind from calm
Wind: Calm
Temperature: 41°F , 5°C
Dew Point: 36°F , 2°C
Humidity: 81%
Barometer: 30.16 inHg , 1021.3 hPa
Clouds: Clear
Visibility: 10 miles , 16 km
2021/09/16 14:58 KGRF 161458Z AUTO 00000KT 10SM CLR 05/02 A3016 RMK AO2 SLP218 T00470024 50000 $
 
KNUW - Whidbey Is. Nas, Washington, USA
Distance from station: NNW 48mi, 77km
Updated: Sep/16/2021 7:56am
Partly cloudy
Partly cloudy
 Wind from SE
Wind: SE 5 mph , 7 km/h
Temperature: 48°F , 9°C
Wind Chill: 46°F , 8°C
Dew Point: 46°F , 8°C
Humidity: 94%
Barometer: 30.22 inHg , 1023.4 hPa
Clouds: Partly cloudy
Visibility: 9 miles , 14 km
Cloud details: Few Clouds 900 ft
Partly cloudy 3000 ft
Partly cloudy 25000 ft
2021/09/16 14:56 KNUW 161456Z 13004KT 9SM FEW009 SCT030 SCT250 09/08 A3022 RMK AO2 SLP232 FU SCT030 T00940083 53010
KSHN - Shelton, Washington, USA
Distance from station: SW 50mi, 80km
Updated: Sep/16/2021 7:53am
Clear
Clear
 
Temperature: 37°F , 3°C
Dew Point: 36°F , 2°C
Humidity: 93%
Barometer: 30.15 inHg , 1021 hPa
Clouds: Clear
Visibility: 10 miles , 16 km
2021/09/16 14:53 KSHN 161453Z AUTO 10SM CLR 03/02 A3015 RMK AO2 SLP212 T00330022 53000